sensor_id;sensor_type;location;lat;lon;timestamp;pressure;altitude;pressure_sealevel;temperature;humidity
10718;BME280;13513;42.700;23.124;2023-08-24T00:00:22;93130.78;;;23.41;67.03
10718;BME280;13513;42.700;23.124;2023-08-24T00:02:51;93134.74;;;23.35;68.05
10718;BME280;13513;42.700;23.124;2023-08-24T00:05:19;93128.48;;;23.37;68.11
10718;BME280;13513;42.700;23.124;2023-08-24T00:07:47;93121.11;;;23.40;68.09
10718;BME280;13513;42.700;23.124;2023-08-24T00:10:15;93121.66;;;23.40;67.98
10718;BME280;13513;42.700;23.124;2023-08-24T00:12:43;93123.95;;;23.35;68.39
10718;BME280;13513;42.700;23.124;2023-08-24T00:15:11;93126.19;;;23.33;68.57
10718;BME280;13513;42.700;23.124;2023-08-24T00:17:39;93121.52;;;23.28;69.17
10718;BME280;13513;42.700;23.124;2023-08-24T00:20:07;93121.74;;;23.29;69.52
10718;BME280;13513;42.700;23.124;2023-08-24T00:22:37;93115.41;;;23.25;70.91
10718;BME280;13513;42.700;23.124;2023-08-24T00:25:06;93111.36;;;23.25;70.41
10718;BME280;13513;42.700;23.124;2023-08-24T00:27:35;93114.20;;;23.28;69.80
10718;BME280;13513;42.700;23.124;2023-08-24T00:30:04;93111.13;;;23.24;69.79
10718;BME280;13513;42.700;23.124;2023-08-24T00:32:34;93113.11;;;23.21;70.89
10718;BME280;13513;42.700;23.124;2023-08-24T00:35:03;93111.33;;;23.16;71.11
10718;BME280;13513;42.700;23.124;2023-08-24T00:37:32;93112.22;;;23.14;70.91
10718;BME280;13513;42.700;23.124;2023-08-24T00:40:00;93115.00;;;23.11;71.00
10718;BME280;13513;42.700;23.124;2023-08-24T00:42:40;93110.78;;;23.08;71.92
10718;BME280;13513;42.700;23.124;2023-08-24T00:45:09;93112.44;;;23.06;72.80
10718;BME280;13513;42.700;23.124;2023-08-24T00:47:39;93110.37;;;23.12;71.64
10718;BME280;13513;42.700;23.124;2023-08-24T00:50:07;93107.36;;;23.05;71.28
10718;BME280;13513;42.700;23.124;2023-08-24T00:52:42;93110.45;;;23.01;71.96
10718;BME280;13513;42.700;23.124;2023-08-24T00:55:07;93113.63;;;22.94;72.61
10718;BME280;13513;42.700;23.124;2023-08-24T00:57:37;93107.22;;;22.84;73.75
10718;BME280;13513;42.700;23.124;2023-08-24T01:00:06;93116.17;;;22.82;73.49
10718;BME280;13513;42.700;23.124;2023-08-24T01:02:35;93110.47;;;22.84;73.37
10718;BME280;13513;42.700;23.124;2023-08-24T01:05:02;93112.70;;;22.82;73.87
10718;BME280;13513;42.700;23.124;2023-08-24T01:07:38;93120.38;;;22.77;74.97
10718;BME280;13513;42.700;23.124;2023-08-24T01:10:08;93116.41;;;22.75;74.71
10718;BME280;13513;42.700;23.124;2023-08-24T01:15:27;93112.06;;;22.76;75.07
10718;BME280;13513;42.700;23.124;2023-08-24T01:17:55;93112.52;;;22.78;74.49
10718;BME280;13513;42.700;23.124;2023-08-24T01:20:24;93107.69;;;22.69;75.17
10718;BME280;13513;42.700;23.124;2023-08-24T01:23:14;93104.33;;;22.55;76.23
10718;BME280;13513;42.700;23.124;2023-08-24T01:26:39;93103.37;;;22.51;76.36
10718;BME280;13513;42.700;23.124;2023-08-24T01:28:23;93100.05;;;22.54;76.27
10718;BME280;13513;42.700;23.124;2023-08-24T01:30:51;93102.26;;;22.52;76.59
10718;BME280;13513;42.700;23.124;2023-08-24T01:33:18;93102.56;;;22.51;76.74
10718;BME280;13513;42.700;23.124;2023-08-24T01:35:46;93104.17;;;22.52;77.20
10718;BME280;13513;42.700;23.124;2023-08-24T01:38:13;93106.22;;;22.55;77.27
10718;BME280;13513;42.700;23.124;2023-08-24T01:43:15;93101.13;;;22.45;78.92
10718;BME280;13513;42.700;23.124;2023-08-24T01:45:45;93104.90;;;22.35;79.24
10718;BME280;13513;42.700;23.124;2023-08-24T01:48:13;93110.02;;;22.26;79.17
10718;BME280;13513;42.700;23.124;2023-08-24T01:50:41;93107.17;;;22.31;79.55
10718;BME280;13513;42.700;23.124;2023-08-24T01:53:09;93110.28;;;22.35;78.64
10718;BME280;13513;42.700;23.124;2023-08-24T01:55:37;93103.70;;;22.39;78.58
10718;BME280;13513;42.700;23.124;2023-08-24T01:58:04;93105.63;;;22.38;79.10
10718;BME280;13513;42.700;23.124;2023-08-24T02:00:32;93105.36;;;22.37;79.18
10718;BME280;13513;42.700;23.124;2023-08-24T02:02:59;93105.75;;;22.33;79.65
10718;BME280;13513;42.700;23.124;2023-08-24T02:05:27;93110.91;;;22.32;79.14
10718;BME280;13513;42.700;23.124;2023-08-24T02:07:55;93114.71;;;22.31;79.53
10718;BME280;13513;42.700;23.124;2023-08-24T02:10:23;93119.63;;;22.38;78.69
10718;BME280;13513;42.700;23.124;2023-08-24T02:12:51;93114.17;;;22.40;78.19
10718;BME280;13513;42.700;23.124;2023-08-24T02:15:18;93111.63;;;22.35;78.72
10718;BME280;13513;42.700;23.124;2023-08-24T02:17:46;93118.21;;;22.32;79.38
10718;BME280;13513;42.700;23.124;2023-08-24T02:20:13;93124.37;;;22.32;79.85
10718;BME280;13513;42.700;23.124;2023-08-24T02:22:41;93118.09;;;22.26;80.37
10718;BME280;13513;42.700;23.124;2023-08-24T02:25:10;93119.91;;;22.28;80.66
10718;BME280;13513;42.700;23.124;2023-08-24T02:27:37;93126.17;;;22.06;82.17
10718;BME280;13513;42.700;23.124;2023-08-24T02:30:06;93119.06;;;22.02;83.04
10718;BME280;13513;42.700;23.124;2023-08-24T02:32:33;93114.01;;;21.89;83.31
10718;BME280;13513;42.700;23.124;2023-08-24T02:35:01;93109.24;;;21.86;84.19
10718;BME280;13513;42.700;23.124;2023-08-24T02:37:28;93107.55;;;21.79;84.77
10718;BME280;13513;42.700;23.124;2023-08-24T02:39:56;93110.38;;;21.74;85.86
10718;BME280;13513;42.700;23.124;2023-08-24T02:42:23;93107.68;;;21.63;86.69
10718;BME280;13513;42.700;23.124;2023-08-24T02:44:51;93105.37;;;21.59;88.27
10718;BME280;13513;42.700;23.124;2023-08-24T02:47:18;93098.48;;;21.56;88.33
10718;BME280;13513;42.700;23.124;2023-08-24T02:49:46;93098.78;;;21.54;88.67
10718;BME280;13513;42.700;23.124;2023-08-24T02:52:13;93102.08;;;21.51;89.73
10718;BME280;13513;42.700;23.124;2023-08-24T02:54:41;93101.34;;;21.48;90.10
10718;BME280;13513;42.700;23.124;2023-08-24T02:57:08;93100.73;;;21.51;89.77
10718;BME280;13513;42.700;23.124;2023-08-24T02:59:36;93104.11;;;21.46;89.12
10718;BME280;13513;42.700;23.124;2023-08-24T03:02:03;93105.66;;;21.38;89.54
10718;BME280;13513;42.700;23.124;2023-08-24T03:04:30;93104.98;;;21.33;90.01
10718;BME280;13513;42.700;23.124;2023-08-24T03:06:58;93107.31;;;21.26;90.80
10718;BME280;13513;42.700;23.124;2023-08-24T03:09:25;93115.13;;;21.36;90.50
10718;BME280;13513;42.700;23.124;2023-08-24T03:11:53;93113.06;;;21.22;90.67
10718;BME280;13513;42.700;23.124;2023-08-24T03:14:20;93115.86;;;20.95;92.39
10718;BME280;13513;42.700;23.124;2023-08-24T03:16:47;93117.00;;;20.91;92.71
10718;BME280;13513;42.700;23.124;2023-08-24T03:19:15;93119.37;;;20.82;93.25
10718;BME280;13513;42.700;23.124;2023-08-24T03:21:44;93125.95;;;20.76;95.80
10718;BME280;13513;42.700;23.124;2023-08-24T03:24:12;93128.14;;;20.85;94.20
10718;BME280;13513;42.700;23.124;2023-08-24T03:26:39;93129.93;;;20.89;93.67
10718;BME280;13513;42.700;23.124;2023-08-24T03:29:07;93126.72;;;21.01;92.94
10718;BME280;13513;42.700;23.124;2023-08-24T03:31:34;93139.19;;;21.08;92.82
10718;BME280;13513;42.700;23.124;2023-08-24T03:34:02;93144.38;;;20.80;95.83
10718;BME280;13513;42.700;23.124;2023-08-24T03:36:30;93141.86;;;20.97;94.12
10718;BME280;13513;42.700;23.124;2023-08-24T03:38:57;93139.14;;;20.99;93.61
10718;BME280;13513;42.700;23.124;2023-08-24T03:41:25;93142.06;;;21.00;94.04
10718;BME280;13513;42.700;23.124;2023-08-24T03:43:53;93144.09;;;21.06;93.83
10718;BME280;13513;42.700;23.124;2023-08-24T03:46:20;93144.45;;;21.02;93.75
10718;BME280;13513;42.700;23.124;2023-08-24T03:48:48;93144.03;;;21.08;93.54
10718;BME280;13513;42.700;23.124;2023-08-24T03:51:15;93142.48;;;21.16;92.86
10718;BME280;13513;42.700;23.124;2023-08-24T03:53:43;93141.28;;;21.22;92.01
10718;BME280;13513;42.700;23.124;2023-08-24T03:56:11;93146.12;;;21.22;92.00
10718;BME280;13513;42.700;23.124;2023-08-24T03:58:38;93143.48;;;21.09;93.12
10718;BME280;13513;42.700;23.124;2023-08-24T04:01:12;93153.54;;;21.14;92.33
10718;BME280;13513;42.700;23.124;2023-08-24T04:03:36;93153.54;;;21.14;93.01
10718;BME280;13513;42.700;23.124;2023-08-24T04:06:04;93147.02;;;21.18;93.51
10718;BME280;13513;42.700;23.124;2023-08-24T04:08:32;93146.79;;;21.17;92.98
10718;BME280;13513;42.700;23.124;2023-08-24T04:10:59;93150.08;;;21.14;93.00
10718;BME280;13513;42.700;23.124;2023-08-24T04:13:27;93153.80;;;21.15;91.75
10718;BME280;13513;42.700;23.124;2023-08-24T04:15:54;93154.64;;;21.13;92.51
10718;BME280;13513;42.700;23.124;2023-08-24T04:18:22;93151.66;;;21.26;92.59
10718;BME280;13513;42.700;23.124;2023-08-24T04:20:55;93155.63;;;21.39;91.95
10718;BME280;13513;42.700;23.124;2023-08-24T04:23:24;93153.68;;;21.53;90.61
10718;BME280;13513;42.700;23.124;2023-08-24T04:25:54;93150.35;;;21.56;91.04
10718;BME280;13513;42.700;23.124;2023-08-24T04:28:21;93141.02;;;21.43;92.01
10718;BME280;13513;42.700;23.124;2023-08-24T04:30:50;93146.09;;;21.44;91.84
10718;BME280;13513;42.700;23.124;2023-08-24T04:33:18;93143.63;;;21.56;91.60
10718;BME280;13513;42.700;23.124;2023-08-24T04:35:48;93150.00;;;21.71;89.99
10718;BME280;13513;42.700;23.124;2023-08-24T04:38:16;93156.09;;;21.85;91.00
10718;BME280;13513;42.700;23.124;2023-08-24T04:40:52;93163.31;;;22.07;89.88
10718;BME280;13513;42.700;23.124;2023-08-24T04:43:21;93159.02;;;22.17;88.07
10718;BME280;13513;42.700;23.124;2023-08-24T04:45:50;93162.52;;;22.26;86.50
10718;BME280;13513;42.700;23.124;2023-08-24T04:48:21;93161.76;;;22.34;85.67
10718;BME280;13513;42.700;23.124;2023-08-24T04:50:50;93165.71;;;22.47;83.88
10718;BME280;13513;42.700;23.124;2023-08-24T04:53:19;93161.57;;;22.69;81.91
10718;BME280;13513;42.700;23.124;2023-08-24T04:55:47;93162.72;;;22.94;79.58
10718;BME280;13513;42.700;23.124;2023-08-24T04:58:14;93154.47;;;22.99;79.78
10718;BME280;13513;42.700;23.124;2023-08-24T05:00:42;93156.63;;;23.34;77.43
10718;BME280;13513;42.700;23.124;2023-08-24T05:03:09;93155.59;;;23.58;75.88
10718;BME280;13513;42.700;23.124;2023-08-24T05:05:37;93150.86;;;23.86;74.34
10718;BME280;13513;42.700;23.124;2023-08-24T05:08:05;93153.84;;;24.25;74.21
10718;BME280;13513;42.700;23.124;2023-08-24T05:10:35;93146.07;;;24.75;73.08
10718;BME280;13513;42.700;23.124;2023-08-24T05:13:03;93146.34;;;25.03;71.88
10718;BME280;13513;42.700;23.124;2023-08-24T05:15:30;93153.66;;;25.23;71.28
10718;BME280;13513;42.700;23.124;2023-08-24T05:17:58;93153.22;;;25.21;73.20
10718;BME280;13513;42.700;23.124;2023-08-24T05:20:26;93152.17;;;25.34;73.38
10718;BME280;13513;42.700;23.124;2023-08-24T05:22:54;93157.84;;;25.35;74.06
10718;BME280;13513;42.700;23.124;2023-08-24T05:25:23;93154.13;;;25.39;73.36
10718;BME280;13513;42.700;23.124;2023-08-24T05:27:50;93166.19;;;25.42;72.79
10718;BME280;13513;42.700;23.124;2023-08-24T05:30:18;93171.48;;;25.38;72.20
10718;BME280;13513;42.700;23.124;2023-08-24T05:32:45;93176.95;;;25.44;72.12
10718;BME280;13513;42.700;23.124;2023-08-24T05:35:13;93172.88;;;25.44;72.24
10718;BME280;13513;42.700;23.124;2023-08-24T05:37:40;93180.41;;;25.39;69.13
10718;BME280;13513;42.700;23.124;2023-08-24T05:40:08;93184.75;;;25.31;69.27
10718;BME280;13513;42.700;23.124;2023-08-24T05:42:35;93182.84;;;25.32;70.49
10718;BME280;13513;42.700;23.124;2023-08-24T05:45:03;93191.23;;;25.39;70.31
10718;BME280;13513;42.700;23.124;2023-08-24T05:47:31;93186.97;;;25.44;69.73
10718;BME280;13513;42.700;23.124;2023-08-24T05:49:58;93188.26;;;25.52;68.50
10718;BME280;13513;42.700;23.124;2023-08-24T05:52:26;93186.73;;;25.63;66.15
10718;BME280;13513;42.700;23.124;2023-08-24T05:54:53;93193.07;;;25.73;65.54
10718;BME280;13513;42.700;23.124;2023-08-24T05:57:20;93188.02;;;25.98;65.24
10718;BME280;13513;42.700;23.124;2023-08-24T05:59:48;93189.75;;;26.27;64.13
10718;BME280;13513;42.700;23.124;2023-08-24T06:02:15;93187.53;;;26.35;60.57
10718;BME280;13513;42.700;23.124;2023-08-24T06:04:43;93198.97;;;26.52;57.65
10718;BME280;13513;42.700;23.124;2023-08-24T06:07:10;93199.73;;;26.53;61.70
10718;BME280;13513;42.700;23.124;2023-08-24T06:09:38;93202.90;;;26.49;62.08
10718;BME280;13513;42.700;23.124;2023-08-24T06:12:06;93201.22;;;26.44;59.72
10718;BME280;13513;42.700;23.124;2023-08-24T06:14:34;93198.46;;;26.26;59.36
10718;BME280;13513;42.700;23.124;2023-08-24T06:17:01;93204.48;;;26.05;59.27
10718;BME280;13513;42.700;23.124;2023-08-24T06:19:29;93206.22;;;25.89;60.17
10718;BME280;13513;42.700;23.124;2023-08-24T06:21:57;93206.42;;;26.05;60.64
10718;BME280;13513;42.700;23.124;2023-08-24T06:24:24;93200.48;;;26.17;60.53
10718;BME280;13513;42.700;23.124;2023-08-24T06:26:52;93199.86;;;26.44;59.93
10718;BME280;13513;42.700;23.124;2023-08-24T06:29:19;93198.89;;;26.79;59.49
10718;BME280;13513;42.700;23.124;2023-08-24T06:31:46;93200.13;;;27.24;57.54
10718;BME280;13513;42.700;23.124;2023-08-24T06:34:14;93198.42;;;27.13;54.33
10718;BME280;13513;42.700;23.124;2023-08-24T06:36:41;93201.60;;;27.21;55.05
10718;BME280;13513;42.700;23.124;2023-08-24T06:39:09;93204.94;;;27.42;55.30
10718;BME280;13513;42.700;23.124;2023-08-24T06:41:36;93200.91;;;27.70;55.63
10718;BME280;13513;42.700;23.124;2023-08-24T06:44:04;93210.77;;;28.02;55.10
10718;BME280;13513;42.700;23.124;2023-08-24T06:46:32;93209.20;;;28.22;53.89
10718;BME280;13513;42.700;23.124;2023-08-24T06:48:59;93206.61;;;28.47;52.07
10718;BME280;13513;42.700;23.124;2023-08-24T06:51:27;93206.70;;;28.97;49.66
10718;BME280;13513;42.700;23.124;2023-08-24T06:53:55;93202.50;;;29.50;45.88
10718;BME280;13513;42.700;23.124;2023-08-24T06:56:23;93203.42;;;29.73;44.94
10718;BME280;13513;42.700;23.124;2023-08-24T06:58:50;93201.06;;;30.29;44.25
10718;BME280;13513;42.700;23.124;2023-08-24T07:01:18;93200.48;;;31.06;42.09
10718;BME280;13513;42.700;23.124;2023-08-24T07:03:45;93205.42;;;31.46;39.73
10718;BME280;13513;42.700;23.124;2023-08-24T07:06:12;93205.27;;;31.61;39.97
10718;BME280;13513;42.700;23.124;2023-08-24T07:08:40;93195.69;;;31.48;41.12
10718;BME280;13513;42.700;23.124;2023-08-24T07:11:07;93198.83;;;31.63;39.88
10718;BME280;13513;42.700;23.124;2023-08-24T07:13:34;93192.91;;;32.00;40.00
10718;BME280;13513;42.700;23.124;2023-08-24T07:16:02;93177.62;;;33.56;37.83
10718;BME280;13513;42.700;23.124;2023-08-24T07:18:30;93177.62;;;33.56;37.83
10718;BME280;13513;42.700;23.124;2023-08-24T07:20:57;93183.27;;;34.29;34.96
10718;BME280;13513;42.700;23.124;2023-08-24T07:23:25;93177.85;;;34.50;34.23
10718;BME280;13513;42.700;23.124;2023-08-24T07:25:52;93176.00;;;34.92;34.63
10718;BME280;13513;42.700;23.124;2023-08-24T07:39:59;93199.36;;;35.83;32.06
10718;BME280;13513;42.700;23.124;2023-08-24T07:42:26;93190.53;;;35.14;33.25
10718;BME280;13513;42.700;23.124;2023-08-24T07:44:54;93188.09;;;34.56;35.57
10718;BME280;13513;42.700;23.124;2023-08-24T07:47:21;93187.57;;;34.26;35.98
10718;BME280;13513;42.700;23.124;2023-08-24T07:49:49;93190.77;;;33.60;36.39
10718;BME280;13513;42.700;23.124;2023-08-24T07:52:16;93183.58;;;33.72;36.97
10718;BME280;13513;42.700;23.124;2023-08-24T07:54:44;93183.58;;;33.72;36.97
10718;BME280;13513;42.700;23.124;2023-08-24T07:57:12;93181.84;;;33.81;35.55
10718;BME280;13513;42.700;23.124;2023-08-24T07:59:39;93181.84;;;33.81;35.55
10718;BME280;13513;42.700;23.124;2023-08-24T08:02:06;93186.20;;;34.26;35.09
10718;BME280;13513;42.700;23.124;2023-08-24T08:04:34;93185.74;;;34.65;34.48
10718;BME280;13513;42.700;23.124;2023-08-24T08:07:01;93184.63;;;35.12;34.12
10718;BME280;13513;42.700;23.124;2023-08-24T08:09:29;93181.50;;;35.10;34.89
10718;BME280;13513;42.700;23.124;2023-08-24T08:11:56;93187.23;;;36.20;32.80
10718;BME280;13513;42.700;23.124;2023-08-24T08:14:23;93194.83;;;36.42;31.94
10718;BME280;13513;42.700;23.124;2023-08-24T08:16:53;93192.11;;;36.35;30.80
10718;BME280;13513;42.700;23.124;2023-08-24T08:19:20;93188.50;;;36.52;32.11
10718;BME280;13513;42.700;23.124;2023-08-24T08:21:49;93189.05;;;37.24;31.90
10718;BME280;13513;42.700;23.124;2023-08-24T08:24:16;93182.86;;;37.35;29.25
10718;BME280;13513;42.700;23.124;2023-08-24T08:26:44;93184.92;;;38.08;29.06
10718;BME280;13513;42.700;23.124;2023-08-24T08:29:11;93191.11;;;36.84;30.52
10718;BME280;13513;42.700;23.124;2023-08-24T08:31:40;93185.25;;;37.00;30.60
10718;BME280;13513;42.700;23.124;2023-08-24T08:34:07;93188.45;;;36.95;30.42
10718;BME280;13513;42.700;23.124;2023-08-24T08:36:35;93173.63;;;38.14;30.36
10718;BME280;13513;42.700;23.124;2023-08-24T08:39:02;93175.51;;;39.34;28.64
10718;BME280;13513;42.700;23.124;2023-08-24T08:41:33;93173.23;;;39.29;28.32
10718;BME280;13513;42.700;23.124;2023-08-24T08:44:04;93174.30;;;39.73;27.25
10718;BME280;13513;42.700;23.124;2023-08-24T08:46:33;93173.17;;;40.64;25.44
10718;BME280;13513;42.700;23.124;2023-08-24T08:49:01;93172.86;;;40.39;25.64
10718;BME280;13513;42.700;23.124;2023-08-24T08:51:29;93173.11;;;40.83;26.06
10718;BME280;13513;42.700;23.124;2023-08-24T08:53:57;93174.09;;;41.92;24.39
10718;BME280;13513;42.700;23.124;2023-08-24T08:56:24;93176.42;;;41.14;24.84
10718;BME280;13513;42.700;23.124;2023-08-24T08:58:52;93169.17;;;42.12;24.86
10718;BME280;13513;42.700;23.124;2023-08-24T09:01:22;93171.03;;;41.07;25.63
10718;BME280;13513;42.700;23.124;2023-08-24T09:03:51;93169.21;;;41.88;24.07
10718;BME280;13513;42.700;23.124;2023-08-24T09:06:25;93165.59;;;41.19;25.47
10718;BME280;13513;42.700;23.124;2023-08-24T09:08:49;93158.82;;;42.13;24.55
10718;BME280;13513;42.700;23.124;2023-08-24T09:11:17;93150.94;;;42.81;22.75
10718;BME280;13513;42.700;23.124;2023-08-24T09:13:45;93151.66;;;43.65;21.95
10718;BME280;13513;42.700;23.124;2023-08-24T09:16:13;93150.63;;;43.71;21.88
10718;BME280;13513;42.700;23.124;2023-08-24T09:18:45;93147.23;;;43.17;22.57
10718;BME280;13513;42.700;23.124;2023-08-24T09:21:14;93143.47;;;40.80;23.82
10718;BME280;13513;42.700;23.124;2023-08-24T09:23:53;93140.08;;;40.53;24.55
10718;BME280;13513;42.700;23.124;2023-08-24T09:26:14;93134.97;;;41.55;23.44
10718;BME280;13513;42.700;23.124;2023-08-24T09:28:43;93126.50;;;42.47;24.24
10718;BME280;13513;42.700;23.124;2023-08-24T09:31:12;93129.19;;;40.98;24.30
10718;BME280;13513;42.700;23.124;2023-08-24T09:33:42;93124.04;;;43.58;21.65
10718;BME280;13513;42.700;23.124;2023-08-24T09:36:08;93124.14;;;45.48;21.26
10718;BME280;13513;42.700;23.124;2023-08-24T09:38:35;93124.53;;;44.93;20.61
10718;BME280;13513;42.700;23.124;2023-08-24T09:41:03;93120.98;;;44.50;21.50
10718;BME280;13513;42.700;23.124;2023-08-24T09:43:31;93122.19;;;43.17;21.24
10718;BME280;13513;42.700;23.124;2023-08-24T09:45:59;93118.30;;;41.87;24.17
10718;BME280;13513;42.700;23.124;2023-08-24T09:48:26;93108.33;;;39.68;26.41
10718;BME280;13513;42.700;23.124;2023-08-24T09:50:55;93099.33;;;39.29;26.27
10718;BME280;13513;42.700;23.124;2023-08-24T09:53:24;93101.94;;;38.90;27.37
10718;BME280;13513;42.700;23.124;2023-08-24T09:56:02;93097.30;;;38.57;26.53
10718;BME280;13513;42.700;23.124;2023-08-24T09:58:32;93092.91;;;38.48;26.72
10718;BME280;13513;42.700;23.124;2023-08-24T10:01:00;93088.09;;;35.88;28.52
10718;BME280;13513;42.700;23.124;2023-08-24T10:03:30;93083.62;;;35.65;29.65
10718;BME280;13513;42.700;23.124;2023-08-24T10:05:58;93078.42;;;34.43;32.29
10718;BME280;13513;42.700;23.124;2023-08-24T10:08:29;93081.95;;;34.37;32.34
10718;BME280;13513;42.700;23.124;2023-08-24T10:10:57;93077.16;;;34.09;33.94
10718;BME280;13513;42.700;23.124;2023-08-24T10:16:05;93066.94;;;33.51;35.28
10718;BME280;13513;42.700;23.124;2023-08-24T10:18:36;93066.94;;;33.51;35.28
10718;BME280;13513;42.700;23.124;2023-08-24T10:21:04;93062.50;;;32.95;35.06
10718;BME280;13513;42.700;23.124;2023-08-24T10:23:32;93060.37;;;32.74;33.95
10718;BME280;13513;42.700;23.124;2023-08-24T10:26:03;93056.61;;;33.23;34.42
10718;BME280;13513;42.700;23.124;2023-08-24T10:28:31;93058.20;;;33.73;34.33
10718;BME280;13513;42.700;23.124;2023-08-24T10:31:00;93064.21;;;34.03;32.01
10718;BME280;13513;42.700;23.124;2023-08-24T10:33:30;93063.66;;;34.10;32.57
10718;BME280;13513;42.700;23.124;2023-08-24T10:35:58;93059.49;;;34.00;32.62
10718;BME280;13513;42.700;23.124;2023-08-24T10:38:29;93037.75;;;33.94;35.01
10718;BME280;13513;42.700;23.124;2023-08-24T10:41:04;93044.33;;;33.75;32.11
10718;BME280;13513;42.700;23.124;2023-08-24T10:43:37;93046.55;;;33.93;33.51
10718;BME280;13513;42.700;23.124;2023-08-24T10:46:16;93052.35;;;34.40;32.86
10718;BME280;13513;42.700;23.124;2023-08-24T10:51:17;93052.34;;;34.61;32.90
10718;BME280;13513;42.700;23.124;2023-08-24T10:53:53;93047.97;;;34.18;31.77
10718;BME280;13513;42.700;23.124;2023-08-24T10:56:21;93053.27;;;33.58;32.27
10718;BME280;13513;42.700;23.124;2023-08-24T10:59:09;93057.70;;;33.12;34.92
10718;BME280;13513;42.700;23.124;2023-08-24T11:01:19;93081.82;;;32.65;36.09
10718;BME280;13513;42.700;23.124;2023-08-24T11:03:55;93074.08;;;32.31;36.63
10718;BME280;13513;42.700;23.124;2023-08-24T11:06:22;93067.73;;;31.70;37.73
10718;BME280;13513;42.700;23.124;2023-08-24T11:09:05;93066.05;;;31.29;39.26
10718;BME280;13513;42.700;23.124;2023-08-24T11:11:22;93060.88;;;30.95;39.77
10718;BME280;13513;42.700;23.124;2023-08-24T11:14:16;93067.51;;;30.23;41.85
10718;BME280;13513;42.700;23.124;2023-08-24T11:16:47;93063.83;;;29.92;42.78
10718;BME280;13513;42.700;23.124;2023-08-24T11:19:15;93065.33;;;29.58;44.07
10718;BME280;13513;42.700;23.124;2023-08-24T11:21:44;93064.23;;;29.43;44.66
10718;BME280;13513;42.700;23.124;2023-08-24T11:24:13;93061.07;;;29.41;44.91
10718;BME280;13513;42.700;23.124;2023-08-24T11:26:43;93070.39;;;29.21;44.52
10718;BME280;13513;42.700;23.124;2023-08-24T11:29:11;93063.48;;;29.08;45.36
10718;BME280;13513;42.700;23.124;2023-08-24T11:31:39;93066.02;;;29.26;45.05
10718;BME280;13513;42.700;23.124;2023-08-24T11:34:07;93060.77;;;29.37;45.71
10718;BME280;13513;42.700;23.124;2023-08-24T11:36:48;93054.77;;;29.37;45.29
10718;BME280;13513;42.700;23.124;2023-08-24T11:39:19;93057.21;;;28.89;46.94
10718;BME280;13513;42.700;23.124;2023-08-24T11:42:00;93061.78;;;28.60;46.45
10718;BME280;13513;42.700;23.124;2023-08-24T11:44:29;93055.84;;;28.39;48.06
10718;BME280;13513;42.700;23.124;2023-08-24T11:46:58;93052.30;;;28.69;47.15
10718;BME280;13513;42.700;23.124;2023-08-24T11:49:26;93053.55;;;28.91;47.60
10718;BME280;13513;42.700;23.124;2023-08-24T11:51:54;93052.73;;;29.06;46.79
10718;BME280;13513;42.700;23.124;2023-08-24T11:54:21;93053.89;;;29.05;45.18
10718;BME280;13513;42.700;23.124;2023-08-24T11:56:49;93056.66;;;28.89;46.79
10718;BME280;13513;42.700;23.124;2023-08-24T11:59:17;93051.70;;;28.60;46.44
10718;BME280;13513;42.700;23.124;2023-08-24T12:01:46;93049.47;;;28.91;46.66
10718;BME280;13513;42.700;23.124;2023-08-24T12:04:14;93043.25;;;28.90;46.63
10718;BME280;13513;42.700;23.124;2023-08-24T12:06:41;93031.11;;;29.03;47.16
10718;BME280;13513;42.700;23.124;2023-08-24T12:09:09;93029.45;;;28.99;45.53
10718;BME280;13513;42.700;23.124;2023-08-24T12:11:37;93029.91;;;29.20;45.43
10718;BME280;13513;42.700;23.124;2023-08-24T12:14:06;93023.81;;;29.17;44.49
10718;BME280;13513;42.700;23.124;2023-08-24T12:16:36;93021.43;;;29.44;45.60
10718;BME280;13513;42.700;23.124;2023-08-24T12:19:07;93026.66;;;29.71;43.68
10718;BME280;13513;42.700;23.124;2023-08-24T12:21:34;93021.78;;;30.03;42.79
10718;BME280;13513;42.700;23.124;2023-08-24T12:24:04;93023.61;;;30.67;42.87
10718;BME280;13513;42.700;23.124;2023-08-24T12:26:33;93026.82;;;31.15;40.97
10718;BME280;13513;42.700;23.124;2023-08-24T12:29:08;93026.70;;;31.34;40.77
10718;BME280;13513;42.700;23.124;2023-08-24T12:31:33;93022.28;;;31.88;39.46
10718;BME280;13513;42.700;23.124;2023-08-24T12:34:05;93024.28;;;32.58;38.85
10718;BME280;13513;42.700;23.124;2023-08-24T12:36:37;93020.81;;;32.68;36.71
10718;BME280;13513;42.700;23.124;2023-08-24T12:39:05;93010.72;;;32.79;37.78
10718;BME280;13513;42.700;23.124;2023-08-24T12:41:36;93010.72;;;32.79;37.78
10718;BME280;13513;42.700;23.124;2023-08-24T12:44:04;93011.78;;;32.61;39.23
10718;BME280;13513;42.700;23.124;2023-08-24T12:46:32;93009.61;;;32.60;38.93
10718;BME280;13513;42.700;23.124;2023-08-24T12:49:03;93004.86;;;32.81;38.65
10718;BME280;13513;42.700;23.124;2023-08-24T12:51:30;93000.64;;;32.87;36.50
10718;BME280;13513;42.700;23.124;2023-08-24T12:53:58;93008.55;;;32.05;39.34
10718;BME280;13513;42.700;23.124;2023-08-24T12:56:25;93008.23;;;31.73;41.05
10718;BME280;13513;42.700;23.124;2023-08-24T12:58:53;93012.05;;;32.02;40.80
10718;BME280;13513;42.700;23.124;2023-08-24T13:01:21;93009.49;;;32.23;39.70
10718;BME280;13513;42.700;23.124;2023-08-24T13:03:48;93012.25;;;32.26;40.97
10718;BME280;13513;42.700;23.124;2023-08-24T13:06:16;93010.64;;;32.38;40.09
10718;BME280;13513;42.700;23.124;2023-08-24T13:08:43;93015.52;;;32.19;39.46
10718;BME280;13513;42.700;23.124;2023-08-24T13:11:10;93015.87;;;31.57;39.96
10718;BME280;13513;42.700;23.124;2023-08-24T13:13:38;93020.02;;;31.64;40.61
10718;BME280;13513;42.700;23.124;2023-08-24T13:16:05;93030.72;;;31.60;39.76
10718;BME280;13513;42.700;23.124;2023-08-24T13:18:33;93024.89;;;31.15;40.47